CPE7 weather

CLOSED New Lowell Airport
New Lowell, Ontario, Canada

Public forecast

Using degrees Celsius for public forecast. Weather courtesy of forecast.io.

METAR (pilot weather report)

Closest report is CFB Borden, 7.1 nm (13.1 km) S. Retrieved 2019/05/26 10:00 UTC (58 minutes ago):

CYBN 261000Z AUTO 32003KT 9SM CLR 14/12 A2989 RMK SLP121

TAF (pilot weather forecast)

Forecast is more than 12 hours old.

Closest forecast is CFB Borden, 7.1 nm (13.1 km) S. Retrieved 2019/05/24 18:33 UTC (2 days ago):

TAF TAF CYBN 241730Z 2418/2506 36010KT P6SM FEW020 BKN240 TEMPO 2418/2506 BKN020 OVC240 BECMG 2422/2424 VRB03KT RMK FCST BASED ON AUTO OBS. NXT FCST BY 250000Z